sensor_id;sensor_type;location;lat;lon;timestamp;pressure;altitude;pressure_sealevel;temperature;humidity
34696;BME280;20918;51.138;17.370;2022-12-07T00:00:49;99733.84;;;0.90;95.42
34696;BME280;20918;51.138;17.370;2022-12-07T00:03:52;99733.64;;;0.93;95.44
34696;BME280;20918;51.138;17.370;2022-12-07T00:06:56;99732.20;;;0.95;95.43
34696;BME280;20918;51.138;17.370;2022-12-07T00:09:58;99729.24;;;0.94;95.45
34696;BME280;20918;51.138;17.370;2022-12-07T00:12:59;99730.07;;;0.94;95.47
34696;BME280;20918;51.138;17.370;2022-12-07T00:16:10;99722.23;;;0.94;95.50
34696;BME280;20918;51.138;17.370;2022-12-07T00:19:13;99714.39;;;0.94;95.51
34696;BME280;20918;51.138;17.370;2022-12-07T00:22:16;99715.57;;;0.96;95.60
34696;BME280;20918;51.138;17.370;2022-12-07T00:25:17;99709.52;;;0.95;95.54
34696;BME280;20918;51.138;17.370;2022-12-07T00:28:18;99705.59;;;0.95;95.56
34696;BME280;20918;51.138;17.370;2022-12-07T00:31:21;99703.47;;;0.95;95.57
34696;BME280;20918;51.138;17.370;2022-12-07T00:34:23;99699.55;;;0.95;95.62
34696;BME280;20918;51.138;17.370;2022-12-07T00:37:24;99699.06;;;0.95;95.71
34696;BME280;20918;51.138;17.370;2022-12-07T00:40:28;99700.98;;;0.93;95.71
34696;BME280;20918;51.138;17.370;2022-12-07T00:43:30;99696.21;;;0.93;95.70
34696;BME280;20918;51.138;17.370;2022-12-07T00:46:32;99693.25;;;0.92;95.75
34696;BME280;20918;51.138;17.370;2022-12-07T00:49:33;99689.68;;;0.93;95.80
34696;BME280;20918;51.138;17.370;2022-12-07T00:52:34;99690.53;;;0.93;95.86
34696;BME280;20918;51.138;17.370;2022-12-07T00:55:35;99687.80;;;0.95;95.87
34696;BME280;20918;51.138;17.370;2022-12-07T00:58:37;99698.14;;;0.96;95.89
34696;BME280;20918;51.138;17.370;2022-12-07T01:01:38;99695.98;;;0.96;95.96
34696;BME280;20918;51.138;17.370;2022-12-07T01:04:39;99703.13;;;0.99;95.92
34696;BME280;20918;51.138;17.370;2022-12-07T01:07:40;99697.42;;;1.00;95.91
34696;BME280;20918;51.138;17.370;2022-12-07T01:10:41;99695.16;;;1.01;95.89
34696;BME280;20918;51.138;17.370;2022-12-07T01:13:43;99695.88;;;1.03;95.94
34696;BME280;20918;51.138;17.370;2022-12-07T01:16:45;99696.61;;;1.05;95.93
34696;BME280;20918;51.138;17.370;2022-12-07T01:19:46;99696.13;;;1.05;95.93
34696;BME280;20918;51.138;17.370;2022-12-07T01:22:49;99693.17;;;1.04;95.87
34696;BME280;20918;51.138;17.370;2022-12-07T01:25:57;99696.23;;;1.04;95.84
34696;BME280;20918;51.138;17.370;2022-12-07T01:29:00;99692.69;;;1.05;95.84
34696;BME280;20918;51.138;17.370;2022-12-07T01:32:01;99688.87;;;1.03;95.83
34696;BME280;20918;51.138;17.370;2022-12-07T01:35:02;99685.09;;;1.02;95.88
34696;BME280;20918;51.138;17.370;2022-12-07T01:38:06;99690.31;;;1.02;95.88
34696;BME280;20918;51.138;17.370;2022-12-07T01:41:07;99688.52;;;1.02;95.91
34696;BME280;20918;51.138;17.370;2022-12-07T01:44:24;99689.35;;;1.03;95.92
34696;BME280;20918;51.138;17.370;2022-12-07T01:47:26;99690.56;;;1.04;95.92
34696;BME280;20918;51.138;17.370;2022-12-07T01:50:28;99687.95;;;1.04;95.90
34696;BME280;20918;51.138;17.370;2022-12-07T01:53:34;99687.56;;;1.03;95.90
34696;BME280;20918;51.138;17.370;2022-12-07T01:56:38;99688.87;;;1.03;95.98
34696;BME280;20918;51.138;17.370;2022-12-07T01:59:45;99688.05;;;1.03;96.04
34696;BME280;20918;51.138;17.370;2022-12-07T02:03:27;99685.53;;;1.01;95.98
34696;BME280;20918;51.138;17.370;2022-12-07T02:06:22;99687.32;;;1.01;95.97
34696;BME280;20918;51.138;17.370;2022-12-07T02:09:24;99684.12;;;0.97;96.02
34696;BME280;20918;51.138;17.370;2022-12-07T02:12:25;99690.89;;;1.00;96.02
34696;BME280;20918;51.138;17.370;2022-12-07T02:15:31;99690.06;;;0.99;96.01
34696;BME280;20918;51.138;17.370;2022-12-07T02:18:50;99692.20;;;1.00;96.04
34696;BME280;20918;51.138;17.370;2022-12-07T02:22:05;99688.28;;;1.00;96.03
34696;BME280;20918;51.138;17.370;2022-12-07T02:32:20;99683.29;;;0.97;96.12
34696;BME280;20918;51.138;17.370;2022-12-07T02:38:50;99686.14;;;0.94;96.22
34696;BME280;20918;51.138;17.370;2022-12-07T02:42:00;99686.23;;;0.92;96.37
34696;BME280;20918;51.138;17.370;2022-12-07T02:44:59;99685.41;;;0.92;96.39
34696;BME280;20918;51.138;17.370;2022-12-07T02:48:02;99681.02;;;0.92;96.37
34696;BME280;20918;51.138;17.370;2022-12-07T02:51:05;99678.41;;;0.92;96.35
34696;BME280;20918;51.138;17.370;2022-12-07T02:54:14;99674.14;;;0.91;96.28
34696;BME280;20918;51.138;17.370;2022-12-07T02:57:25;99681.15;;;0.91;96.27
34696;BME280;20918;51.138;17.370;2022-12-07T03:00:29;99675.92;;;0.91;96.29
34696;BME280;20918;51.138;17.370;2022-12-07T03:03:31;99679.94;;;0.89;96.28
34696;BME280;20918;51.138;17.370;2022-12-07T03:06:36;99677.46;;;0.87;96.25
34696;BME280;20918;51.138;17.370;2022-12-07T03:09:53;99675.43;;;0.85;96.23
34696;BME280;20918;51.138;17.370;2022-12-07T03:13:11;99678.97;;;0.84;96.25
34696;BME280;20918;51.138;17.370;2022-12-07T03:16:35;99678.63;;;0.83;96.21
34696;BME280;20918;51.138;17.370;2022-12-07T03:19:44;99671.84;;;0.81;96.24
34696;BME280;20918;51.138;17.370;2022-12-07T03:22:47;99671.50;;;0.80;96.28
34696;BME280;20918;51.138;17.370;2022-12-07T03:25:54;99666.75;;;0.79;96.21
34696;BME280;20918;51.138;17.370;2022-12-07T03:29:00;99669.12;;;0.77;96.21
34696;BME280;20918;51.138;17.370;2022-12-07T03:32:20;99664.38;;;0.76;96.03
34696;BME280;20918;51.138;17.370;2022-12-07T03:35:39;99664.38;;;0.76;96.03
34696;BME280;20918;51.138;17.370;2022-12-07T03:38:57;99665.69;;;0.76;96.28
34696;BME280;20918;51.138;17.370;2022-12-07T03:42:07;99663.27;;;0.73;96.32
34696;BME280;20918;51.138;17.370;2022-12-07T03:45:10;99666.27;;;0.74;96.33
34696;BME280;20918;51.138;17.370;2022-12-07T03:48:35;99656.30;;;0.74;96.32
34696;BME280;20918;51.138;17.370;2022-12-07T03:52:02;99656.30;;;0.74;96.32
34696;BME280;20918;51.138;17.370;2022-12-07T03:55:32;99651.42;;;0.75;96.32
34696;BME280;20918;51.138;17.370;2022-12-07T03:58:36;99646.91;;;0.71;96.32
34696;BME280;20918;51.138;17.370;2022-12-07T04:01:38;99650.45;;;0.70;96.44
34696;BME280;20918;51.138;17.370;2022-12-07T04:04:39;99648.31;;;0.70;96.46
34696;BME280;20918;51.138;17.370;2022-12-07T04:07:41;99651.30;;;0.71;96.48
34696;BME280;20918;51.138;17.370;2022-12-07T04:10:42;99645.61;;;0.71;96.51
34696;BME280;20918;51.138;17.370;2022-12-07T04:13:43;99647.73;;;0.72;96.50
34696;BME280;20918;51.138;17.370;2022-12-07T04:17:03;99646.08;;;0.71;96.38
34696;BME280;20918;51.138;17.370;2022-12-07T04:20:05;99649.14;;;0.70;96.42
34696;BME280;20918;51.138;17.370;2022-12-07T04:23:07;99654.02;;;0.69;96.40
34696;BME280;20918;51.138;17.370;2022-12-07T04:26:09;99654.59;;;0.67;96.37
34696;BME280;20918;51.138;17.370;2022-12-07T04:29:10;99647.14;;;0.68;96.37
34696;BME280;20918;51.138;17.370;2022-12-07T04:32:12;99650.10;;;0.69;96.38
34696;BME280;20918;51.138;17.370;2022-12-07T04:35:12;99640.23;;;0.67;96.36
34696;BME280;20918;51.138;17.370;2022-12-07T04:38:14;99649.03;;;0.66;96.34
34696;BME280;20918;51.138;17.370;2022-12-07T04:41:15;99648.55;;;0.66;96.40
34696;BME280;20918;51.138;17.370;2022-12-07T04:44:17;99651.51;;;0.67;96.43
34696;BME280;20918;51.138;17.370;2022-12-07T04:47:19;99646.19;;;0.69;96.44
34696;BME280;20918;51.138;17.370;2022-12-07T04:50:20;99648.45;;;0.68;96.49
34696;BME280;20918;51.138;17.370;2022-12-07T04:53:22;99643.80;;;0.66;96.45
34696;BME280;20918;51.138;17.370;2022-12-07T04:56:24;99649.51;;;0.65;96.40
34696;BME280;20918;51.138;17.370;2022-12-07T04:59:27;99654.34;;;0.64;96.43
34696;BME280;20918;51.138;17.370;2022-12-07T05:02:29;99647.95;;;0.63;96.39
34696;BME280;20918;51.138;17.370;2022-12-07T05:05:30;99654.58;;;0.61;96.40
34696;BME280;20918;51.138;17.370;2022-12-07T05:08:34;99656.02;;;0.60;96.41
34696;BME280;20918;51.138;17.370;2022-12-07T05:11:36;99664.68;;;0.60;96.43
34696;BME280;20918;51.138;17.370;2022-12-07T05:14:40;99659.80;;;0.61;96.54
34696;BME280;20918;51.138;17.370;2022-12-07T05:17:41;99658.87;;;0.62;96.54
34696;BME280;20918;51.138;17.370;2022-12-07T05:20:42;99653.66;;;0.62;96.58
34696;BME280;20918;51.138;17.370;2022-12-07T05:23:47;99652.80;;;0.62;96.57
34696;BME280;20918;51.138;17.370;2022-12-07T05:26:48;99648.88;;;0.62;96.60
34696;BME280;20918;51.138;17.370;2022-12-07T05:29:50;99650.66;;;0.61;96.65
34696;BME280;20918;51.138;17.370;2022-12-07T05:32:52;99648.88;;;0.62;96.68
34696;BME280;20918;51.138;17.370;2022-12-07T05:35:54;99644.62;;;0.61;96.79
34696;BME280;20918;51.138;17.370;2022-12-07T05:38:55;99654.48;;;0.63;96.77
34696;BME280;20918;51.138;17.370;2022-12-07T05:41:56;99653.28;;;0.61;96.70
34696;BME280;20918;51.138;17.370;2022-12-07T05:45:12;99649.49;;;0.60;96.69
34696;BME280;20918;51.138;17.370;2022-12-07T05:48:13;99646.88;;;0.60;96.74
34696;BME280;20918;51.138;17.370;2022-12-07T05:51:15;99647.46;;;0.58;96.78
34696;BME280;20918;51.138;17.370;2022-12-07T05:54:16;99651.63;;;0.60;96.85
34696;BME280;20918;51.138;17.370;2022-12-07T05:57:18;99647.70;;;0.60;96.95
34696;BME280;20918;51.138;17.370;2022-12-07T06:00:20;99656.72;;;0.62;97.00
34696;BME280;20918;51.138;17.370;2022-12-07T06:03:23;99657.09;;;0.63;97.09
34696;BME280;20918;51.138;17.370;2022-12-07T06:06:24;99650.68;;;0.67;97.16
34696;BME280;20918;51.138;17.370;2022-12-07T06:09:26;99637.63;;;0.67;97.27
34696;BME280;20918;51.138;17.370;2022-12-07T06:12:28;99641.31;;;0.70;97.24
34696;BME280;20918;51.138;17.370;2022-12-07T06:15:36;99642.03;;;0.72;97.28
34696;BME280;20918;51.138;17.370;2022-12-07T06:18:37;99644.41;;;0.75;97.33
34696;BME280;20918;51.138;17.370;2022-12-07T06:21:39;99647.84;;;0.76;97.33
34696;BME280;20918;51.138;17.370;2022-12-07T06:24:42;99637.78;;;0.77;97.39
34696;BME280;20918;51.138;17.370;2022-12-07T06:27:43;99641.56;;;0.78;97.35
34696;BME280;20918;51.138;17.370;2022-12-07T06:30:44;99644.55;;;0.79;97.31
34696;BME280;20918;51.138;17.370;2022-12-07T06:33:45;99644.55;;;0.79;97.23
34696;BME280;20918;51.138;17.370;2022-12-07T06:36:47;99646.20;;;0.80;97.16
34696;BME280;20918;51.138;17.370;2022-12-07T06:39:50;99653.08;;;0.81;97.06
34696;BME280;20918;51.138;17.370;2022-12-07T06:42:51;99645.86;;;0.79;96.88
34696;BME280;20918;51.138;17.370;2022-12-07T06:45:52;99652.97;;;0.77;96.76
34696;BME280;20918;51.138;17.370;2022-12-07T06:48:53;99648.23;;;0.77;96.71
34696;BME280;20918;51.138;17.370;2022-12-07T06:51:54;99654.28;;;0.77;96.65
34696;BME280;20918;51.138;17.370;2022-12-07T06:54:55;99649.53;;;0.77;96.58
34696;BME280;20918;51.138;17.370;2022-12-07T06:57:56;99657.96;;;0.80;96.46
34696;BME280;20918;51.138;17.370;2022-12-07T07:00:58;99657.38;;;0.82;96.48
34696;BME280;20918;51.138;17.370;2022-12-07T07:04:00;99650.85;;;0.82;96.30
34696;BME280;20918;51.138;17.370;2022-12-07T07:07:01;99654.77;;;0.82;96.26
34696;BME280;20918;51.138;17.370;2022-12-07T07:10:03;99659.38;;;0.84;96.23
34696;BME280;20918;51.138;17.370;2022-12-07T07:13:05;99651.92;;;0.85;96.11
34696;BME280;20918;51.138;17.370;2022-12-07T07:16:07;99652.02;;;0.84;95.94
34696;BME280;20918;51.138;17.370;2022-12-07T07:19:08;99648.93;;;0.84;95.89
34696;BME280;20918;51.138;17.370;2022-12-07T07:22:10;99643.26;;;0.85;95.85
34696;BME280;20918;51.138;17.370;2022-12-07T07:25:11;99647.05;;;0.86;95.73
34696;BME280;20918;51.138;17.370;2022-12-07T07:28:12;99652.27;;;0.86;95.60
34696;BME280;20918;51.138;17.370;2022-12-07T07:31:13;99650.48;;;0.87;95.47
34696;BME280;20918;51.138;17.370;2022-12-07T07:34:15;99646.95;;;0.88;95.32
34696;BME280;20918;51.138;17.370;2022-12-07T07:37:16;99635.53;;;0.89;95.25
34696;BME280;20918;51.138;17.370;2022-12-07T07:40:17;99642.31;;;0.92;95.17
34696;BME280;20918;51.138;17.370;2022-12-07T07:43:18;99639.70;;;0.92;95.15
34696;BME280;20918;51.138;17.370;2022-12-07T07:46:19;99638.49;;;0.90;95.04
34696;BME280;20918;51.138;17.370;2022-12-07T07:49:21;99645.27;;;0.93;94.96
34696;BME280;20918;51.138;17.370;2022-12-07T07:52:22;99643.61;;;0.92;94.49
34696;BME280;20918;51.138;17.370;2022-12-07T07:55:23;99646.34;;;0.96;94.57
34696;BME280;20918;51.138;17.370;2022-12-07T07:58:24;99648.61;;;1.00;94.56
34696;BME280;20918;51.138;17.370;2022-12-07T08:01:26;99647.20;;;1.07;94.64
34696;BME280;20918;51.138;17.370;2022-12-07T08:04:27;99651.23;;;1.17;94.83
34696;BME280;20918;51.138;17.370;2022-12-07T08:07:28;99650.28;;;1.29;94.94
34696;BME280;20918;51.138;17.370;2022-12-07T08:10:29;99646.84;;;1.40;94.62
34696;BME280;20918;51.138;17.370;2022-12-07T08:13:32;99656.13;;;1.44;94.19
34696;BME280;20918;51.138;17.370;2022-12-07T08:16:33;99656.60;;;1.44;93.94
34696;BME280;20918;51.138;17.370;2022-12-07T08:19:34;99649.21;;;1.43;93.81
34696;BME280;20918;51.138;17.370;2022-12-07T08:22:36;99662.05;;;1.41;93.54
34696;BME280;20918;51.138;17.370;2022-12-07T08:25:37;99656.13;;;1.39;93.50
34696;BME280;20918;51.138;17.370;2022-12-07T08:28:39;99661.70;;;1.40;93.63
34696;BME280;20918;51.138;17.370;2022-12-07T08:31:40;99653.38;;;1.40;93.57
34696;BME280;20918;51.138;17.370;2022-12-07T08:34:42;99652.20;;;1.44;93.60
34696;BME280;20918;51.138;17.370;2022-12-07T08:37:43;99656.70;;;1.48;93.55
34696;BME280;20918;51.138;17.370;2022-12-07T08:40:45;99661.22;;;1.46;93.16
34696;BME280;20918;51.138;17.370;2022-12-07T08:43:48;99662.28;;;1.43;92.92
34696;BME280;20918;51.138;17.370;2022-12-07T08:46:56;99663.34;;;1.41;92.62
34696;BME280;20918;51.138;17.370;2022-12-07T08:49:58;99667.64;;;1.42;92.74
34696;BME280;20918;51.138;17.370;2022-12-07T08:53:02;99669.54;;;1.40;92.57
34696;BME280;20918;51.138;17.370;2022-12-07T08:56:06;99662.90;;;1.41;92.46
34696;BME280;20918;51.138;17.370;2022-12-07T08:59:08;99660.97;;;1.49;92.18
34696;BME280;20918;51.138;17.370;2022-12-07T09:02:09;99646.89;;;1.95;93.40
34696;BME280;20918;51.138;17.370;2022-12-07T09:05:11;99637.03;;;2.19;92.61
34696;BME280;20918;51.138;17.370;2022-12-07T09:08:15;99638.73;;;2.41;92.14
34696;BME280;20918;51.138;17.370;2022-12-07T09:11:16;99629.20;;;2.46;91.32
34696;BME280;20918;51.138;17.370;2022-12-07T09:14:18;99630.51;;;2.46;90.84
34696;BME280;20918;51.138;17.370;2022-12-07T09:17:19;99624.67;;;2.48;90.55
34696;BME280;20918;51.138;17.370;2022-12-07T09:20:21;99626.55;;;2.52;90.72
34696;BME280;20918;51.138;17.370;2022-12-07T09:23:22;99624.16;;;2.54;89.99
34696;BME280;20918;51.138;17.370;2022-12-07T09:26:24;99619.14;;;2.57;90.17
34696;BME280;20918;51.138;17.370;2022-12-07T09:29:25;99616.92;;;2.67;90.48
34696;BME280;20918;51.138;17.370;2022-12-07T09:32:26;99611.30;;;2.72;89.44
34696;BME280;20918;51.138;17.370;2022-12-07T09:35:27;99611.45;;;2.71;89.35
34696;BME280;20918;51.138;17.370;2022-12-07T09:38:28;99606.58;;;2.66;89.02
34696;BME280;20918;51.138;17.370;2022-12-07T09:41:32;99602.28;;;2.71;89.27
34696;BME280;20918;51.138;17.370;2022-12-07T09:44:34;99602.44;;;2.79;89.48
34696;BME280;20918;51.138;17.370;2022-12-07T09:47:36;99595.39;;;2.85;88.89
34696;BME280;20918;51.138;17.370;2022-12-07T09:50:39;99592.77;;;2.85;87.61
34696;BME280;20918;51.138;17.370;2022-12-07T09:53:41;99589.22;;;2.80;88.05
34696;BME280;20918;51.138;17.370;2022-12-07T09:56:44;99577.50;;;2.84;87.93
34696;BME280;20918;51.138;17.370;2022-12-07T09:59:45;99577.95;;;2.89;87.62
34696;BME280;20918;51.138;17.370;2022-12-07T10:02:58;99582.88;;;2.98;87.54
34696;BME280;20918;51.138;17.370;2022-12-07T10:06:00;99573.30;;;3.18;87.60
34696;BME280;20918;51.138;17.370;2022-12-07T10:09:11;99570.41;;;3.36;87.50
34696;BME280;20918;51.138;17.370;2022-12-07T10:12:13;99580.25;;;3.54;87.77
34696;BME280;20918;51.138;17.370;2022-12-07T10:15:14;99565.42;;;3.58;86.19
34696;BME280;20918;51.138;17.370;2022-12-07T10:18:28;99568.32;;;3.55;85.84
34696;BME280;20918;51.138;17.370;2022-12-07T10:21:58;99562.70;;;3.54;85.98
34696;BME280;20918;51.138;17.370;2022-12-07T10:24:48;99547.18;;;3.47;85.19
34696;BME280;20918;51.138;17.370;2022-12-07T10:28:11;99555.50;;;3.37;85.11
34696;BME280;20918;51.138;17.370;2022-12-07T10:31:18;99543.91;;;3.30;84.25
34696;BME280;20918;51.138;17.370;2022-12-07T10:34:24;99538.83;;;3.23;84.72
34696;BME280;20918;51.138;17.370;2022-12-07T10:37:27;99531.18;;;3.25;84.94
34696;BME280;20918;51.138;17.370;2022-12-07T10:40:34;99523.86;;;3.29;84.80
34696;BME280;20918;51.138;17.370;2022-12-07T10:43:36;99524.50;;;3.27;84.36
34696;BME280;20918;51.138;17.370;2022-12-07T10:46:45;99522.22;;;3.28;84.67
34696;BME280;20918;51.138;17.370;2022-12-07T10:57:21;99523.15;;;3.17;84.31
34696;BME280;20918;51.138;17.370;2022-12-07T11:01:06;99524.46;;;3.17;84.59
34696;BME280;20918;51.138;17.370;2022-12-07T11:04:20;99528.33;;;3.13;84.56
34696;BME280;20918;51.138;17.370;2022-12-07T11:11:21;99525.80;;;2.86;84.24
34696;BME280;20918;51.138;17.370;2022-12-07T11:14:37;99523.73;;;2.65;85.14
34696;BME280;20918;51.138;17.370;2022-12-07T11:17:53;99522.46;;;2.59;85.75
34696;BME280;20918;51.138;17.370;2022-12-07T11:24:40;99522.17;;;2.47;86.25
34696;BME280;20918;51.138;17.370;2022-12-07T11:28:19;99519.81;;;2.44;86.32
34696;BME280;20918;51.138;17.370;2022-12-07T11:31:37;99521.05;;;2.40;86.67
34696;BME280;20918;51.138;17.370;2022-12-07T11:38:48;99513.45;;;2.37;86.59
34696;BME280;20918;51.138;17.370;2022-12-07T11:42:04;99512.40;;;2.34;86.78
34696;BME280;20918;51.138;17.370;2022-12-07T11:48:37;99508.28;;;2.26;87.11
34696;BME280;20918;51.138;17.370;2022-12-07T11:51:51;99507.57;;;2.23;87.03
34696;BME280;20918;51.138;17.370;2022-12-07T11:54:54;99506.60;;;2.24;87.06
34696;BME280;20918;51.138;17.370;2022-12-07T11:58:03;99501.96;;;2.28;87.18
34696;BME280;20918;51.138;17.370;2022-12-07T12:04:44;99493.84;;;2.31;86.95
34696;BME280;20918;51.138;17.370;2022-12-07T12:07:59;99493.96;;;2.30;86.74
34696;BME280;20918;51.138;17.370;2022-12-07T12:21:46;99496.84;;;2.27;87.00
34696;BME280;20918;51.138;17.370;2022-12-07T12:24:53;99497.18;;;2.28;86.77
34696;BME280;20918;51.138;17.370;2022-12-07T12:28:01;99498.15;;;2.27;87.20
34696;BME280;20918;51.138;17.370;2022-12-07T12:31:13;99495.75;;;2.29;86.95
34696;BME280;20918;51.138;17.370;2022-12-07T12:34:41;99492.80;;;2.28;86.93
34696;BME280;20918;51.138;17.370;2022-12-07T12:37:45;99500.84;;;2.31;86.89
34696;BME280;20918;51.138;17.370;2022-12-07T12:40:47;99490.03;;;2.30;86.35
34696;BME280;20918;51.138;17.370;2022-12-07T12:43:50;99486.45;;;2.31;86.40
34696;BME280;20918;51.138;17.370;2022-12-07T12:50:42;99477.39;;;2.35;86.73
34696;BME280;20918;51.138;17.370;2022-12-07T12:53:43;99480.34;;;2.36;86.56
34696;BME280;20918;51.138;17.370;2022-12-07T13:00:27;99478.66;;;2.40;85.97
34696;BME280;20918;51.138;17.370;2022-12-07T13:03:30;99477.88;;;2.50;85.82
34696;BME280;20918;51.138;17.370;2022-12-07T13:06:35;99474.12;;;2.58;85.78
34696;BME280;20918;51.138;17.370;2022-12-07T13:09:42;99476.14;;;2.60;85.96
34696;BME280;20918;51.138;17.370;2022-12-07T13:12:55;99487.77;;;2.61;85.78
34696;BME280;20918;51.138;17.370;2022-12-07T13:22:50;99486.05;;;2.56;85.22
34696;BME280;20918;51.138;17.370;2022-12-07T13:26:16;99478.80;;;2.54;85.24
34696;BME280;20918;51.138;17.370;2022-12-07T13:29:24;99480.86;;;2.51;84.33
34696;BME280;20918;51.138;17.370;2022-12-07T13:32:28;99474.91;;;2.49;84.48
34696;BME280;20918;51.138;17.370;2022-12-07T13:35:32;99481.58;;;2.47;84.51
34696;BME280;20918;51.138;17.370;2022-12-07T13:38:39;99484.83;;;2.45;84.63
34696;BME280;20918;51.138;17.370;2022-12-07T13:41:48;99491.00;;;2.44;84.73
34696;BME280;20918;51.138;17.370;2022-12-07T13:44:50;99497.81;;;2.41;84.62
34696;BME280;20918;51.138;17.370;2022-12-07T13:47:56;99496.50;;;2.41;84.17
34696;BME280;20918;51.138;17.370;2022-12-07T13:51:02;99500.92;;;2.40;84.58
34696;BME280;20918;51.138;17.370;2022-12-07T13:54:11;99494.48;;;2.39;84.58
34696;BME280;20918;51.138;17.370;2022-12-07T13:57:15;99498.56;;;2.37;84.45
34696;BME280;20918;51.138;17.370;2022-12-07T14:03:27;99489.92;;;2.31;84.18
34696;BME280;20918;51.138;17.370;2022-12-07T14:06:30;99478.03;;;2.27;84.01
34696;BME280;20918;51.138;17.370;2022-12-07T14:09:31;99484.84;;;2.24;83.84
34696;BME280;20918;51.138;17.370;2022-12-07T14:12:35;99488.68;;;2.20;84.00
34696;BME280;20918;51.138;17.370;2022-12-07T14:15:37;99475.37;;;2.17;83.87
34696;BME280;20918;51.138;17.370;2022-12-07T14:18:40;99467.41;;;2.13;83.92
34696;BME280;20918;51.138;17.370;2022-12-07T14:21:42;99473.87;;;2.09;83.89
34696;BME280;20918;51.138;17.370;2022-12-07T14:24:44;99476.75;;;2.06;84.04
34696;BME280;20918;51.138;17.370;2022-12-07T14:27:58;99477.45;;;2.02;84.21
34696;BME280;20918;51.138;17.370;2022-12-07T14:31:02;99478.09;;;2.00;84.42
34696;BME280;20918;51.138;17.370;2022-12-07T14:34:04;99486.65;;;1.97;84.53
34696;BME280;20918;51.138;17.370;2022-12-07T14:37:08;99478.12;;;1.95;84.42
34696;BME280;20918;51.138;17.370;2022-12-07T14:40:29;99482.38;;;1.96;84.39
34696;BME280;20918;51.138;17.370;2022-12-07T14:43:28;99476.66;;;1.96;84.36
34696;BME280;20918;51.138;17.370;2022-12-07T14:46:29;99487.62;;;1.96;84.41
34696;BME280;20918;51.138;17.370;2022-12-07T14:49:30;99485.97;;;1.95;84.36
34696;BME280;20918;51.138;17.370;2022-12-07T14:52:33;99496.55;;;1.93;84.30
34696;BME280;20918;51.138;17.370;2022-12-07T14:55:34;99492.62;;;1.93;84.25
34696;BME280;20918;51.138;17.370;2022-12-07T14:58:37;99491.80;;;1.93;84.38
34696;BME280;20918;51.138;17.370;2022-12-07T15:01:38;99495.38;;;1.92;84.42
34696;BME280;20918;51.138;17.370;2022-12-07T15:04:40;99502.52;;;1.90;84.30
34696;BME280;20918;51.138;17.370;2022-12-07T15:07:42;99498.25;;;1.89;84.04
34696;BME280;20918;51.138;17.370;2022-12-07T15:10:43;99504.42;;;1.88;84.10
34696;BME280;20918;51.138;17.370;2022-12-07T15:13:48;99507.18;;;1.86;84.12
34696;BME280;20918;51.138;17.370;2022-12-07T15:17:10;99517.42;;;1.84;84.11
34696;BME280;20918;51.138;17.370;2022-12-07T15:20:15;99524.21;;;1.81;84.06
34696;BME280;20918;51.138;17.370;2022-12-07T15:23:17;99515.65;;;1.78;84.11
34696;BME280;20918;51.138;17.370;2022-12-07T15:26:19;99516.24;;;1.76;83.88
34696;BME280;20918;51.138;17.370;2022-12-07T15:29:20;99513.28;;;1.75;83.86
34696;BME280;20918;51.138;17.370;2022-12-07T15:32:22;99518.28;;;1.73;84.00
34696;BME280;20918;51.138;17.370;2022-12-07T15:35:23;99518.40;;;1.71;83.98
34696;BME280;20918;51.138;17.370;2022-12-07T15:38:25;99521.27;;;1.68;84.00
34696;BME280;20918;51.138;17.370;2022-12-07T15:41:27;99521.41;;;1.67;84.02
34696;BME280;20918;51.138;17.370;2022-12-07T15:44:28;99519.16;;;1.62;83.94
34696;BME280;20918;51.138;17.370;2022-12-07T15:47:48;99523.81;;;1.59;83.83
34696;BME280;20918;51.138;17.370;2022-12-07T15:50:50;99525.22;;;1.57;83.95
34696;BME280;20918;51.138;17.370;2022-12-07T15:53:54;99525.12;;;1.53;83.92
34696;BME280;20918;51.138;17.370;2022-12-07T15:56:56;99520.73;;;1.53;83.92
34696;BME280;20918;51.138;17.370;2022-12-07T15:59:58;99517.77;;;1.52;83.77
34696;BME280;20918;51.138;17.370;2022-12-07T16:03:02;99522.48;;;1.64;84.87
34696;BME280;20918;51.138;17.370;2022-12-07T16:06:03;99518.67;;;1.95;84.96
34696;BME280;20918;51.138;17.370;2022-12-07T16:09:05;99519.50;;;1.95;83.74
34696;BME280;20918;51.138;17.370;2022-12-07T16:12:07;99529.05;;;1.85;83.56
34696;BME280;20918;51.138;17.370;2022-12-07T16:15:09;99531.83;;;1.78;83.53
34696;BME280;20918;51.138;17.370;2022-12-07T16:18:11;99532.55;;;1.69;83.46
34696;BME280;20918;51.138;17.370;2022-12-07T16:21:14;99536.72;;;1.66;83.63
34696;BME280;20918;51.138;17.370;2022-12-07T16:24:16;99545.45;;;1.61;83.70
34696;BME280;20918;51.138;17.370;2022-12-07T16:27:17;99537.95;;;1.56;83.71
34696;BME280;20918;51.138;17.370;2022-12-07T16:30:19;99544.37;;;1.52;83.86
34696;BME280;20918;51.138;17.370;2022-12-07T16:33:20;99541.31;;;1.47;83.91
34696;BME280;20918;51.138;17.370;2022-12-07T16:36:22;99544.18;;;1.44;84.02
34696;BME280;20918;51.138;17.370;2022-12-07T16:39:25;99548.31;;;1.41;84.05
34696;BME280;20918;51.138;17.370;2022-12-07T16:42:32;99548.22;;;1.37;83.96
34696;BME280;20918;51.138;17.370;2022-12-07T16:45:36;99549.53;;;1.31;84.00
34696;BME280;20918;51.138;17.370;2022-12-07T16:48:39;99552.98;;;1.26;84.08
34696;BME280;20918;51.138;17.370;2022-12-07T16:51:41;99548.25;;;1.20;84.10
34696;BME280;20918;51.138;17.370;2022-12-07T16:54:48;99546.84;;;1.16;84.16
34696;BME280;20918;51.138;17.370;2022-12-07T16:57:50;99546.60;;;1.13;84.26
34696;BME280;20918;51.138;17.370;2022-12-07T17:00:52;99539.21;;;1.12;84.37
34696;BME280;20918;51.138;17.370;2022-12-07T17:03:53;99550.63;;;1.11;84.43
34696;BME280;20918;51.138;17.370;2022-12-07T17:06:55;99552.28;;;1.12;84.46
34696;BME280;20918;51.138;17.370;2022-12-07T17:09:56;99551.59;;;1.10;84.48
34696;BME280;20918;51.138;17.370;2022-12-07T17:12:57;99562.05;;;1.10;84.57
34696;BME280;20918;51.138;17.370;2022-12-07T17:16:01;99549.91;;;1.09;84.65
34696;BME280;20918;51.138;17.370;2022-12-07T17:19:04;99549.46;;;1.10;84.79
34696;BME280;20918;51.138;17.370;2022-12-07T17:22:07;99550.77;;;1.10;84.79